createdAt,value
2022-08-26T00:00:03.128Z,83.53
2022-08-26T00:01:03.360Z,83.53
2022-08-26T00:02:03.667Z,83.53
2022-08-26T00:03:03.845Z,83.83
2022-08-26T00:04:03.965Z,83.83
2022-08-26T00:05:04.227Z,83.83
2022-08-26T00:06:04.402Z,83.93
2022-08-26T00:07:05.279Z,83.83
2022-08-26T00:08:04.927Z,83.93
2022-08-26T00:09:05.142Z,83.83
2022-08-26T00:10:05.401Z,83.73
2022-08-26T00:11:05.657Z,84.23
2022-08-26T00:12:05.929Z,83.97
2022-08-26T00:13:06.217Z,84.37
2022-08-26T00:14:06.235Z,84.07
2022-08-26T00:15:06.478Z,84.37
2022-08-26T00:16:06.715Z,84.27
2022-08-26T00:17:08.632Z,84.47
2022-08-26T00:18:21.763Z,84.37
2022-08-26T00:19:08.344Z,84.27
2022-08-26T00:20:07.552Z,84.17
2022-08-26T00:21:07.771Z,83.97
2022-08-26T00:22:08.006Z,84.07
2022-08-26T00:23:08.402Z,84.37
2022-08-26T00:24:08.487Z,84.07
2022-08-26T00:25:08.781Z,84.03
2022-08-26T00:26:08.952Z,83.93
2022-08-26T00:27:09.214Z,83.73
2022-08-26T00:28:09.357Z,83.73
2022-08-26T00:29:09.602Z,83.83
2022-08-26T00:30:09.833Z,83.83
2022-08-26T00:31:11.119Z,84.07
2022-08-26T00:32:10.333Z,84.03
2022-08-26T00:33:10.807Z,84.03
2022-08-26T00:34:11.288Z,84.17
2022-08-26T00:35:11.102Z,84.27
2022-08-26T00:36:14.440Z,84.47
2022-08-26T00:37:16.170Z,84.47
2022-08-26T00:38:11.845Z,84.57
2022-08-26T00:39:12.058Z,84.67
2022-08-26T00:40:12.281Z,84.57
2022-08-26T00:41:12.504Z,84.47
2022-08-26T00:42:12.724Z,84.57
2022-08-26T00:43:12.957Z,84.57
2022-08-26T00:44:13.184Z,84.77
2022-08-26T00:45:13.402Z,84.77
2022-08-26T00:46:13.658Z,85.17
2022-08-26T00:47:13.939Z,84.87
2022-08-26T00:48:14.153Z,84.97
2022-08-26T00:49:14.371Z,84.87
2022-08-26T00:50:14.636Z,84.87
2022-08-26T00:51:14.866Z,84.87
2022-08-26T00:52:15.366Z,84.77
2022-08-26T00:53:15.262Z,84.97
2022-08-26T00:54:15.478Z,84.97
2022-08-26T00:55:20.169Z,84.77
2022-08-26T00:56:15.926Z,84.77
2022-08-26T00:57:16.713Z,84.57
2022-08-26T00:58:16.421Z,84.37
2022-08-26T00:59:17.619Z,84.33
2022-08-26T01:00:16.877Z,84.33
2022-08-26T01:01:17.161Z,84.33
2022-08-26T01:02:21.120Z,84.33
2022-08-26T01:03:17.541Z,84.33
2022-08-26T01:04:17.758Z,84.23
2022-08-26T01:05:18.034Z,84.23
2022-08-26T01:06:18.290Z,84.33
2022-08-26T01:07:18.517Z,84.33
2022-08-26T01:08:18.716Z,84.33
2022-08-26T01:09:18.919Z,84.33
2022-08-26T01:10:19.125Z,84.23
2022-08-26T01:11:19.335Z,84.33
2022-08-26T01:12:21.959Z,84.33
2022-08-26T01:13:20.092Z,84.43
2022-08-26T01:14:20.232Z,84.33
2022-08-26T01:15:20.250Z,84.43
2022-08-26T01:16:20.491Z,84.23
2022-08-26T01:17:20.702Z,84.53
2022-08-26T01:18:20.909Z,84.33
2022-08-26T01:19:21.119Z,84.43
2022-08-26T01:20:21.321Z,84.03
2022-08-26T01:21:21.531Z,84.13
2022-08-26T01:22:21.762Z,83.93
2022-08-26T01:23:22.936Z,83.93
2022-08-26T01:24:22.186Z,84.13
2022-08-26T01:25:22.392Z,83.93
2022-08-26T01:26:22.588Z,84.03
2022-08-26T01:27:22.873Z,83.93
2022-08-26T01:28:23.106Z,83.93
2022-08-26T01:29:23.329Z,83.93
2022-08-26T01:30:23.566Z,84.03
2022-08-26T01:31:23.850Z,83.93
2022-08-26T01:32:24.070Z,83.93
2022-08-26T01:33:24.294Z,84.03
2022-08-26T01:34:24.504Z,84.03
2022-08-26T01:35:24.689Z,84.03
2022-08-26T01:36:24.891Z,83.93
2022-08-26T01:37:25.130Z,83.83
2022-08-26T01:38:25.328Z,83.83
2022-08-26T01:39:25.559Z,83.83
2022-08-26T01:40:25.781Z,83.83
2022-08-26T01:41:27.578Z,84.03
2022-08-26T01:42:26.251Z,84.23
2022-08-26T01:43:26.472Z,84.13
2022-08-26T01:44:26.689Z,84.13
2022-08-26T01:45:26.946Z,84.23
2022-08-26T01:46:27.152Z,84.23
2022-08-26T01:47:27.379Z,84.63
2022-08-26T01:48:27.561Z,84.63
2022-08-26T01:49:27.791Z,84.73
2022-08-26T01:50:30.200Z,84.53
2022-08-26T01:51:28.188Z,84.93
2022-08-26T01:52:28.470Z,84.63
2022-08-26T01:53:28.639Z,84.73
2022-08-26T01:54:28.891Z,85.23
2022-08-26T01:55:33.062Z,85.07
2022-08-26T01:56:33.259Z,85.17
2022-08-26T01:57:30.540Z,85.17
2022-08-26T01:58:29.738Z,85.17
2022-08-26T01:59:29.941Z,85.47
2022-08-26T02:00:30.146Z,85.37
2022-08-26T02:01:30.361Z,85.37
2022-08-26T02:02:30.596Z,85.47
2022-08-26T02:03:30.827Z,85.57
2022-08-26T02:04:31.067Z,85.67
2022-08-26T02:05:31.258Z,85.67
2022-08-26T02:06:31.482Z,85.67
2022-08-26T02:07:31.694Z,85.87
2022-08-26T02:08:31.907Z,85.97
2022-08-26T02:09:32.109Z,85.91
2022-08-26T02:10:33.272Z,86.01
2022-08-26T02:11:32.469Z,86.21
2022-08-26T02:12:32.745Z,86.11
2022-08-26T02:13:32.937Z,86.21
2022-08-26T02:14:33.150Z,86.31
2022-08-26T02:15:33.378Z,86.41
2022-08-26T02:16:33.655Z,86.41
2022-08-26T02:17:33.921Z,86.41
2022-08-26T02:18:34.083Z,86.61
2022-08-26T02:19:34.341Z,86.61
2022-08-26T02:20:34.564Z,86.91
2022-08-26T02:21:34.778Z,86.71
2022-08-26T02:22:35.076Z,86.81
2022-08-26T02:23:35.296Z,86.91
2022-08-26T02:24:35.510Z,87.01
2022-08-26T02:25:35.720Z,87.11
2022-08-26T02:26:35.938Z,87.01
2022-08-26T02:27:36.179Z,86.91
2022-08-26T02:28:36.396Z,86.91
2022-08-26T02:29:36.618Z,87.15
2022-08-26T02:30:36.790Z,87.25
2022-08-26T02:31:37.144Z,87.25
2022-08-26T02:32:37.276Z,87.35
2022-08-26T02:33:37.529Z,87.45
2022-08-26T02:34:38.690Z,87.45
2022-08-26T02:35:37.904Z,87.45
2022-08-26T02:36:38.090Z,87.45
2022-08-26T02:37:38.289Z,87.45
2022-08-26T02:38:38.515Z,87.45
2022-08-26T02:39:38.695Z,87.55
2022-08-26T02:40:38.904Z,87.65
2022-08-26T02:41:45.156Z,87.55
2022-08-26T02:42:40.312Z,87.45
2022-08-26T02:43:39.529Z,87.55
2022-08-26T02:44:39.748Z,87.55
2022-08-26T02:45:39.970Z,87.65
2022-08-26T02:46:40.223Z,87.85
2022-08-26T02:47:40.401Z,87.85
2022-08-26T02:48:40.570Z,87.75
2022-08-26T02:49:40.790Z,87.95
2022-08-26T02:50:40.984Z,88.05
2022-08-26T02:51:41.291Z,88.05
2022-08-26T02:52:41.526Z,88.05
2022-08-26T02:53:41.754Z,88.05
2022-08-26T02:54:41.928Z,88.15
2022-08-26T02:55:42.160Z,88.25
2022-08-26T02:56:42.377Z,88.39
2022-08-26T02:57:42.619Z,88.39
2022-08-26T02:58:42.838Z,88.49
2022-08-26T02:59:43.049Z,88.59
2022-08-26T03:00:52.845Z,88.59
2022-08-26T03:01:44.577Z,88.69
2022-08-26T03:02:43.791Z,88.89
2022-08-26T03:03:43.998Z,88.89
2022-08-26T03:04:58.118Z,88.79
2022-08-26T03:05:45.499Z,88.89
2022-08-26T03:06:47.044Z,88.99
2022-08-26T03:07:45.919Z,88.99
2022-08-26T03:08:45.131Z,89.09
2022-08-26T03:09:45.343Z,89.19
2022-08-26T03:10:45.539Z,89.19
2022-08-26T03:11:45.778Z,89.29
2022-08-26T03:12:47.309Z,89.29
2022-08-26T03:13:46.279Z,89.39
2022-08-26T03:14:46.494Z,89.39
2022-08-26T03:15:47.705Z,89.49
2022-08-26T03:16:48.478Z,89.39
2022-08-26T03:17:47.181Z,89.53
2022-08-26T03:18:52.251Z,89.73
2022-08-26T03:19:52.914Z,89.73
2022-08-26T03:20:48.874Z,89.73
2022-08-26T03:21:48.056Z,89.83
2022-08-26T03:22:48.268Z,90.13
2022-08-26T03:23:48.427Z,90.03
2022-08-26T03:24:48.636Z,90.03
2022-08-26T03:25:48.864Z,90.03
2022-08-26T03:26:52.572Z,89.94
2022-08-26T03:27:49.288Z,89.83
2022-08-26T03:28:49.510Z,89.83
2022-08-26T03:29:49.758Z,89.83
2022-08-26T03:30:50.007Z,89.94
2022-08-26T03:31:50.268Z,90.03
2022-08-26T03:32:50.448Z,90.03
2022-08-26T03:33:50.672Z,90.03
2022-08-26T03:34:50.873Z,89.94
2022-08-26T03:35:51.066Z,89.94
2022-08-26T03:36:51.297Z,90.13
2022-08-26T03:37:51.518Z,90.13
2022-08-26T03:38:51.742Z,90.33
2022-08-26T03:39:52.007Z,90.33
2022-08-26T03:40:52.236Z,90.23
2022-08-26T03:41:52.438Z,90.44
2022-08-26T03:42:52.721Z,90.33
2022-08-26T03:43:52.957Z,90.13
2022-08-26T03:44:53.198Z,89.89
2022-08-26T03:45:53.408Z,89.89
2022-08-26T03:46:53.661Z,89.79
2022-08-26T03:47:53.879Z,89.69
2022-08-26T03:48:54.107Z,89.59
2022-08-26T03:49:54.333Z,89.69
2022-08-26T03:50:54.566Z,89.59
2022-08-26T03:51:54.767Z,89.69
2022-08-26T03:52:54.992Z,89.69
2022-08-26T03:53:55.242Z,89.69
2022-08-26T03:54:55.441Z,89.69
2022-08-26T03:55:55.668Z,89.69
2022-08-26T03:56:55.887Z,89.79
2022-08-26T03:57:56.078Z,89.79
2022-08-26T03:58:56.289Z,89.89
2022-08-26T03:59:56.505Z,89.79
2022-08-26T04:00:56.780Z,90.09
2022-08-26T04:01:57.059Z,89.99
2022-08-26T04:02:57.338Z,89.89
2022-08-26T04:03:57.457Z,89.89
2022-08-26T04:04:57.731Z,89.79
2022-08-26T04:05:57.989Z,89.69
2022-08-26T04:06:58.214Z,89.79
2022-08-26T04:07:58.452Z,89.79
2022-08-26T04:08:58.672Z,89.79
2022-08-26T04:09:58.882Z,89.69
2022-08-26T04:10:59.118Z,89.79
2022-08-26T04:11:59.282Z,89.69
2022-08-26T04:12:59.523Z,89.79
2022-08-26T04:13:59.736Z,89.69
2022-08-26T04:14:59.967Z,89.69
2022-08-26T04:16:00.224Z,89.69
2022-08-26T04:17:00.420Z,89.69
2022-08-26T04:18:00.650Z,89.69
2022-08-26T04:19:00.880Z,89.69
2022-08-26T04:20:01.071Z,89.79
2022-08-26T04:21:01.304Z,89.69
2022-08-26T04:22:01.562Z,89.59
2022-08-26T04:23:01.815Z,89.69
2022-08-26T04:24:03.456Z,89.69
2022-08-26T04:25:02.269Z,89.49
2022-08-26T04:26:02.490Z,89.49
2022-08-26T04:27:09.715Z,89.39
2022-08-26T04:28:02.908Z,89.39
2022-08-26T04:29:04.774Z,89.49
2022-08-26T04:30:03.306Z,89.49
2022-08-26T04:31:03.599Z,89.29
2022-08-26T04:32:03.818Z,89.29
2022-08-26T04:33:04.074Z,89.29
2022-08-26T04:34:05.219Z,89.15
2022-08-26T04:35:04.591Z,89.29
2022-08-26T04:36:04.636Z,89.25
2022-08-26T04:37:04.811Z,89.05
2022-08-26T04:38:05.336Z,88.95
2022-08-26T04:39:05.289Z,88.95
2022-08-26T04:40:05.535Z,88.95
2022-08-26T04:41:05.750Z,88.85
2022-08-26T04:42:06.917Z,88.75
2022-08-26T04:43:06.286Z,88.75
2022-08-26T04:44:06.342Z,88.75
2022-08-26T04:45:10.146Z,88.65
2022-08-26T04:46:07.755Z,88.55
2022-08-26T04:47:06.942Z,88.55
2022-08-26T04:48:07.178Z,88.55
2022-08-26T04:49:07.387Z,88.55
2022-08-26T04:50:07.680Z,88.40
2022-08-26T04:51:07.916Z,88.31
2022-08-26T04:52:08.091Z,88.31
2022-08-26T04:53:08.541Z,88.21
2022-08-26T04:54:08.571Z,88.21
2022-08-26T04:55:08.850Z,88.10
2022-08-26T04:56:09.032Z,88.10
2022-08-26T04:57:09.292Z,88.10
2022-08-26T04:58:10.189Z,88.10
2022-08-26T04:59:17.141Z,87.91
2022-08-26T05:00:10.946Z,87.91
2022-08-26T05:01:10.409Z,87.71
2022-08-26T05:02:10.361Z,87.81
2022-08-26T05:03:10.804Z,87.71
2022-08-26T05:04:10.804Z,87.71
2022-08-26T05:05:11.075Z,87.57
2022-08-26T05:06:11.301Z,87.57
2022-08-26T05:07:11.502Z,87.27
2022-08-26T05:08:11.731Z,87.37
2022-08-26T05:09:11.949Z,87.16
2022-08-26T05:10:12.178Z,87.07
2022-08-26T05:11:12.361Z,87.07
2022-08-26T05:12:12.587Z,86.87
2022-08-26T05:13:15.376Z,86.82
2022-08-26T05:14:12.951Z,87.02
2022-08-26T05:15:13.167Z,86.72
2022-08-26T05:16:13.437Z,86.43
2022-08-26T05:17:14.874Z,86.52
2022-08-26T05:18:13.847Z,86.22
2022-08-26T05:19:14.057Z,86.13
2022-08-26T05:20:15.234Z,86.22
2022-08-26T05:21:14.447Z,86.03
2022-08-26T05:22:14.667Z,85.93
2022-08-26T05:23:14.940Z,85.88
2022-08-26T05:24:15.139Z,85.83
2022-08-26T05:25:15.364Z,86.08
2022-08-26T05:26:15.576Z,85.69
2022-08-26T05:27:15.746Z,85.58
2022-08-26T05:28:15.928Z,85.58
2022-08-26T05:29:16.156Z,85.49
2022-08-26T05:30:16.359Z,85.69
2022-08-26T05:31:16.656Z,85.69
2022-08-26T05:32:16.764Z,85.58
2022-08-26T05:33:17.018Z,85.09
2022-08-26T05:34:17.200Z,84.89
2022-08-26T05:35:17.396Z,84.84
2022-08-26T05:36:17.609Z,85.05
2022-08-26T05:37:17.835Z,85.05
2022-08-26T05:38:18.049Z,84.65
2022-08-26T05:39:18.255Z,84.45
2022-08-26T05:40:18.518Z,84.25
2022-08-26T05:41:18.705Z,84.11
2022-08-26T05:42:18.939Z,84.01
2022-08-26T05:43:19.186Z,83.91
2022-08-26T05:44:19.335Z,84.21
2022-08-26T05:45:19.573Z,83.47
2022-08-26T05:46:19.785Z,84.27
2022-08-26T05:47:20.010Z,83.07
2022-08-26T05:48:22.651Z,82.87
2022-08-26T05:49:20.369Z,82.67
2022-08-26T05:50:20.505Z,83.07
2022-08-26T05:51:25.337Z,82.57
2022-08-26T05:52:21.907Z,82.48
2022-08-26T05:53:21.107Z,82.57
2022-08-26T05:54:22.468Z,82.37
2022-08-26T05:55:21.535Z,82.37
2022-08-26T05:56:21.743Z,82.48
2022-08-26T05:57:23.137Z,82.43
2022-08-26T05:58:22.271Z,82.34
2022-08-26T05:59:24.509Z,82.34
2022-08-26T06:00:22.624Z,82.04
2022-08-26T06:01:24.122Z,82.14
2022-08-26T06:02:23.028Z,82.04
2022-08-26T06:03:23.188Z,81.64
2022-08-26T06:04:24.883Z,81.84
2022-08-26T06:05:23.595Z,81.70
2022-08-26T06:06:27.886Z,82.00
2022-08-26T06:07:25.078Z,81.20
2022-08-26T06:08:24.290Z,81.50
2022-08-26T06:09:24.505Z,81.20
2022-08-26T06:10:32.953Z,80.87
2022-08-26T06:11:25.975Z,80.87
2022-08-26T06:12:25.193Z,80.87
2022-08-26T06:13:25.426Z,79.93
2022-08-26T06:14:25.615Z,79.73
2022-08-26T06:15:25.804Z,79.43
2022-08-26T06:16:26.086Z,79.53
2022-08-26T06:17:26.245Z,79.39
2022-08-26T06:18:26.454Z,79.10
2022-08-26T06:19:32.665Z,78.90
2022-08-26T06:20:27.805Z,79.00
2022-08-26T06:21:26.999Z,79.20
2022-08-26T06:22:27.212Z,78.40
2022-08-26T06:23:27.365Z,78.56
2022-08-26T06:24:27.608Z,77.93
2022-08-26T06:25:27.793Z,77.47
2022-08-26T06:26:27.984Z,77.57
2022-08-26T06:27:32.153Z,77.37
2022-08-26T06:28:28.401Z,77.97
2022-08-26T06:29:28.606Z,77.33
2022-08-26T06:30:28.806Z,77.47
2022-08-26T06:31:29.056Z,77.93
2022-08-26T06:32:29.262Z,77.14
2022-08-26T06:33:29.415Z,76.90
2022-08-26T06:34:30.423Z,76.31
2022-08-26T06:35:29.813Z,75.91
2022-08-26T06:36:30.012Z,75.91
2022-08-26T06:37:31.195Z,75.78
2022-08-26T06:38:30.436Z,75.97
2022-08-26T06:39:31.307Z,75.48
2022-08-26T06:40:30.946Z,75.57
2022-08-26T06:41:31.032Z,74.95
2022-08-26T06:42:31.251Z,75.14
2022-08-26T06:43:31.448Z,74.80
2022-08-26T06:44:32.456Z,74.25
2022-08-26T06:45:31.932Z,74.31
2022-08-26T06:46:32.079Z,74.31
2022-08-26T06:47:32.172Z,73.98
2022-08-26T06:48:33.175Z,73.58
2022-08-26T06:49:33.516Z,73.55
2022-08-26T06:50:32.691Z,72.06
2022-08-26T06:51:32.934Z,71.53
2022-08-26T06:52:33.211Z,71.99
2022-08-26T06:53:34.436Z,70.38
2022-08-26T06:54:33.611Z,70.38
2022-08-26T06:55:33.784Z,69.95
2022-08-26T06:56:34.003Z,69.06
2022-08-26T06:57:34.829Z,68.76
2022-08-26T06:58:34.301Z,69.22
2022-08-26T06:59:34.612Z,68.63
2022-08-26T07:00:34.687Z,68.01
2022-08-26T07:01:34.943Z,67.61
2022-08-26T07:02:35.113Z,67.71
2022-08-26T07:03:39.625Z,67.68
2022-08-26T07:04:36.223Z,66.36
2022-08-26T07:05:35.508Z,66.49
2022-08-26T07:06:35.671Z,66.75
2022-08-26T07:07:35.857Z,66.33
2022-08-26T07:08:36.082Z,67.02
2022-08-26T07:09:36.243Z,64.92
2022-08-26T07:10:36.469Z,66.86
2022-08-26T07:11:36.642Z,64.89
2022-08-26T07:12:36.822Z,64.17
2022-08-26T07:13:37.003Z,63.97
2022-08-26T07:14:37.177Z,63.87
2022-08-26T07:15:37.384Z,64.29
2022-08-26T07:16:37.515Z,64.69
2022-08-26T07:17:38.692Z,64.76
2022-08-26T07:18:37.901Z,64.17
2022-08-26T07:19:38.053Z,63.25
2022-08-26T07:20:38.234Z,62.63
2022-08-26T07:21:38.416Z,62.53
2022-08-26T07:22:38.617Z,62.04
2022-08-26T07:23:38.837Z,61.52
2022-08-26T07:24:38.987Z,61.29
2022-08-26T07:25:39.219Z,60.70
2022-08-26T07:26:42.955Z,60.60
2022-08-26T07:27:39.478Z,60.50
2022-08-26T07:28:39.668Z,62.27
2022-08-26T07:29:39.828Z,61.46
2022-08-26T07:30:40.102Z,60.15
2022-08-26T07:31:42.275Z,58.95
2022-08-26T07:32:40.358Z,58.82
2022-08-26T07:33:40.546Z,58.43
2022-08-26T07:34:40.712Z,58.01
2022-08-26T07:35:40.846Z,57.84
2022-08-26T07:36:41.024Z,58.40
2022-08-26T07:37:41.180Z,58.30
2022-08-26T07:38:41.370Z,58.43
2022-08-26T07:39:41.520Z,58.62
2022-08-26T07:40:41.674Z,57.71
2022-08-26T07:41:41.806Z,57.39
2022-08-26T07:42:41.961Z,56.97
2022-08-26T07:43:42.135Z,55.94
2022-08-26T07:44:42.303Z,56.33
2022-08-26T07:45:42.567Z,54.54
2022-08-26T07:46:42.548Z,54.83
2022-08-26T07:47:42.757Z,54.71
2022-08-26T07:48:46.143Z,54.61
2022-08-26T07:49:43.069Z,54.81
2022-08-26T07:50:48.841Z,54.81
2022-08-26T07:51:44.268Z,54.42
2022-08-26T07:52:43.465Z,54.35
2022-08-26T07:53:43.587Z,55.35
2022-08-26T07:54:43.653Z,55.60
2022-08-26T07:55:43.815Z,56.31
2022-08-26T07:56:44.283Z,56.29
2022-08-26T07:57:44.140Z,57.34
2022-08-26T07:58:46.652Z,55.96
2022-08-26T07:59:44.450Z,55.94
2022-08-26T08:00:44.617Z,56.82
2022-08-26T08:01:45.374Z,55.13
2022-08-26T08:02:44.828Z,55.81
2022-08-26T08:03:44.975Z,54.77
2022-08-26T08:04:45.167Z,55.77
2022-08-26T08:05:46.370Z,56.75
2022-08-26T08:06:45.358Z,56.71
2022-08-26T08:07:45.653Z,57.03
2022-08-26T08:08:45.663Z,57.93
2022-08-26T08:09:45.820Z,58.23
2022-08-26T08:10:48.845Z,58.23
2022-08-26T08:11:46.085Z,58.53
2022-08-26T08:12:46.254Z,58.14
2022-08-26T08:13:46.414Z,58.65
2022-08-26T08:14:46.557Z,59.17
2022-08-26T08:15:46.691Z,60.47
2022-08-26T08:16:50.983Z,60.38
2022-08-26T08:17:47.856Z,60.05
2022-08-26T08:18:47.025Z,58.92
2022-08-26T08:19:47.192Z,58.53
2022-08-26T08:20:59.290Z,59.14
2022-08-26T08:21:48.452Z,60.42
2022-08-26T08:22:47.550Z,59.21
2022-08-26T08:23:47.706Z,59.05
2022-08-26T08:24:50.028Z,60.84
2022-08-26T08:25:48.941Z,59.95
2022-08-26T08:26:48.072Z,60.25
2022-08-26T08:27:48.213Z,59.95
2022-08-26T08:28:48.388Z,60.00
2022-08-26T08:29:48.542Z,59.08
2022-08-26T08:30:48.739Z,58.01
2022-08-26T08:31:57.935Z,57.59
2022-08-26T08:32:49.944Z,57.52
2022-08-26T08:33:49.114Z,56.77
2022-08-26T08:34:49.227Z,57.53
2022-08-26T08:35:49.354Z,55.45
2022-08-26T08:36:49.486Z,54.88
2022-08-26T08:37:49.608Z,54.95
2022-08-26T08:38:49.753Z,52.97
2022-08-26T08:39:49.950Z,53.53
2022-08-26T08:40:49.986Z,51.07
2022-08-26T08:41:50.101Z,51.63
2022-08-26T08:42:50.186Z,52.50
2022-08-26T08:43:50.310Z,50.68
2022-08-26T08:44:51.941Z,52.39
2022-08-26T08:45:50.575Z,53.39
2022-08-26T08:46:50.674Z,52.80
2022-08-26T08:47:50.796Z,54.36
2022-08-26T08:48:50.867Z,52.58
2022-08-26T08:49:50.977Z,53.29
2022-08-26T08:50:51.017Z,54.32
2022-08-26T08:51:51.117Z,55.10
2022-08-26T08:52:51.225Z,53.66
2022-08-26T08:53:51.341Z,54.77
2022-08-26T08:54:51.395Z,54.25
2022-08-26T08:55:51.498Z,54.47
2022-08-26T08:56:51.680Z,54.35
2022-08-26T08:57:53.706Z,55.03
2022-08-26T08:58:51.835Z,55.30
2022-08-26T08:59:51.941Z,53.61
2022-08-26T09:00:52.114Z,53.25
2022-08-26T09:01:52.252Z,53.78
2022-08-26T09:02:52.229Z,55.06
2022-08-26T09:03:52.357Z,55.31
2022-08-26T09:04:52.488Z,57.07
2022-08-26T09:05:52.580Z,55.82
2022-08-26T09:06:52.794Z,56.73
2022-08-26T09:07:52.898Z,56.12
2022-08-26T09:08:53.047Z,56.61
2022-08-26T09:09:53.092Z,57.12
2022-08-26T09:10:53.990Z,56.51
2022-08-26T09:11:53.345Z,56.41
2022-08-26T09:12:53.486Z,57.00
2022-08-26T09:13:53.655Z,55.06
2022-08-26T09:14:53.680Z,53.47
2022-08-26T09:15:53.776Z,53.47
2022-08-26T09:16:53.917Z,54.15
2022-08-26T09:17:53.910Z,55.22
2022-08-26T09:18:54.052Z,54.83
2022-08-26T09:19:54.171Z,56.70
2022-08-26T09:20:54.298Z,55.06
2022-08-26T09:21:54.464Z,55.41
2022-08-26T09:22:54.545Z,56.34
2022-08-26T09:23:54.675Z,57.22
2022-08-26T09:24:54.794Z,56.93
2022-08-26T09:26:54.978Z,55.38
2022-08-26T09:27:55.083Z,54.77
2022-08-26T09:28:55.180Z,54.44
2022-08-26T09:29:55.227Z,54.08
2022-08-26T09:30:55.413Z,55.08
2022-08-26T09:31:55.489Z,55.51
2022-08-26T09:32:55.976Z,55.60
2022-08-26T09:33:55.630Z,56.97
2022-08-26T09:34:55.765Z,55.18
2022-08-26T09:35:55.879Z,55.96
2022-08-26T09:36:55.989Z,54.86
2022-08-26T09:37:56.102Z,57.28
2022-08-26T09:38:56.229Z,54.93
2022-08-26T09:39:56.355Z,55.98
2022-08-26T09:40:59.415Z,53.58
2022-08-26T09:41:56.580Z,52.75
2022-08-26T09:42:56.697Z,51.56
2022-08-26T09:43:56.831Z,51.53
2022-08-26T09:44:56.883Z,50.24
2022-08-26T09:45:59.471Z,49.34
2022-08-26T09:46:57.110Z,50.80
2022-08-26T09:47:57.143Z,49.90
2022-08-26T09:48:57.244Z,51.07
2022-08-26T09:49:57.331Z,51.09
2022-08-26T09:50:57.430Z,52.26
2022-08-26T09:51:57.522Z,51.78
2022-08-26T09:52:57.630Z,53.14
2022-08-26T09:53:57.744Z,51.65
2022-08-26T09:54:57.845Z,50.09
2022-08-26T09:55:57.877Z,51.58
2022-08-26T09:56:57.967Z,50.51
2022-08-26T09:58:02.259Z,51.90
2022-08-26T09:58:59.106Z,51.39
2022-08-26T09:59:58.195Z,50.63
2022-08-26T10:00:58.441Z,48.05
2022-08-26T10:01:58.448Z,48.15
2022-08-26T10:02:58.448Z,47.32
2022-08-26T10:03:58.577Z,46.72
2022-08-26T10:04:58.637Z,47.28
2022-08-26T10:05:59.648Z,45.28
2022-08-26T10:06:58.701Z,48.27
2022-08-26T10:07:59.662Z,48.02
2022-08-26T10:08:58.817Z,48.61
2022-08-26T10:09:58.857Z,48.93
2022-08-26T10:10:58.960Z,50.48
2022-08-26T10:11:59.030Z,49.32
2022-08-26T10:12:59.126Z,49.76
2022-08-26T10:13:59.152Z,49.76
2022-08-26T10:14:59.322Z,49.85
2022-08-26T10:15:59.486Z,49.66
2022-08-26T10:16:59.400Z,50.21
2022-08-26T10:17:59.394Z,49.90
2022-08-26T10:19:00.299Z,51.17
2022-08-26T10:19:59.586Z,49.83
2022-08-26T10:20:59.648Z,50.12
2022-08-26T10:21:59.742Z,51.24
2022-08-26T10:22:59.927Z,52.00
2022-08-26T10:23:59.886Z,51.02
2022-08-26T10:24:59.983Z,50.12
2022-08-26T10:26:00.068Z,50.97
2022-08-26T10:27:07.142Z,48.66
2022-08-26T10:28:00.194Z,48.54
2022-08-26T10:29:00.260Z,48.44
2022-08-26T10:30:00.320Z,50.29
2022-08-26T10:31:00.384Z,48.54
2022-08-26T10:32:03.436Z,48.05
2022-08-26T10:33:00.551Z,50.56
2022-08-26T10:34:00.832Z,50.09
2022-08-26T10:35:00.675Z,50.99
2022-08-26T10:36:00.742Z,50.75
2022-08-26T10:37:13.646Z,52.05
2022-08-26T10:38:01.896Z,52.27
2022-08-26T10:39:01.002Z,52.08
2022-08-26T10:40:01.156Z,52.59
2022-08-26T10:41:01.130Z,53.30
2022-08-26T10:42:01.221Z,54.11
2022-08-26T10:43:01.299Z,54.11
2022-08-26T10:44:02.995Z,54.52
2022-08-26T10:45:02.268Z,57.29
2022-08-26T10:46:01.620Z,54.65
2022-08-26T10:47:01.585Z,54.82
2022-08-26T10:48:01.751Z,54.23
2022-08-26T10:49:03.333Z,54.60
2022-08-26T10:50:03.218Z,54.33
2022-08-26T10:51:02.105Z,54.03
2022-08-26T10:52:02.220Z,53.62
2022-08-26T10:53:02.346Z,52.88
2022-08-26T10:54:02.464Z,52.27
2022-08-26T10:55:03.139Z,51.86
2022-08-26T10:56:02.736Z,51.95
2022-08-26T10:57:02.828Z,51.92
2022-08-26T10:58:05.015Z,51.63
2022-08-26T10:59:03.127Z,51.63
2022-08-26T11:00:04.321Z,51.86
2022-08-26T11:01:10.203Z,51.46
2022-08-26T11:02:04.446Z,52.02
2022-08-26T11:03:03.577Z,51.27
2022-08-26T11:04:03.733Z,52.05
2022-08-26T11:05:03.858Z,52.54
2022-08-26T11:06:03.989Z,51.59
2022-08-26T11:07:04.066Z,52.29
2022-08-26T11:08:04.134Z,52.56
2022-08-26T11:09:04.279Z,53.39
2022-08-26T11:10:04.367Z,53.49
2022-08-26T11:11:04.464Z,53.91
2022-08-26T11:12:10.237Z,54.50
2022-08-26T11:13:05.725Z,55.04
2022-08-26T11:14:04.769Z,55.95
2022-08-26T11:15:05.237Z,56.44
2022-08-26T11:16:05.410Z,56.07
2022-08-26T11:17:05.189Z,56.37
2022-08-26T11:18:05.230Z,56.27
2022-08-26T11:19:05.355Z,56.24
2022-08-26T11:20:09.527Z,56.34
2022-08-26T11:21:06.579Z,56.44
2022-08-26T11:22:05.674Z,56.63
2022-08-26T11:23:05.809Z,55.85
2022-08-26T11:24:05.928Z,55.76
2022-08-26T11:25:06.097Z,55.85
2022-08-26T11:26:06.242Z,56.44
2022-08-26T11:27:06.378Z,56.07
2022-08-26T11:28:06.554Z,57.25
2022-08-26T11:29:12.828Z,56.79
2022-08-26T11:30:07.774Z,56.30
2022-08-26T11:31:06.925Z,58.32
2022-08-26T11:32:07.007Z,57.82
2022-08-26T11:33:07.157Z,58.25
2022-08-26T11:34:07.265Z,58.64
2022-08-26T11:35:07.367Z,58.05
2022-08-26T11:36:07.533Z,58.94
2022-08-26T11:37:08.683Z,59.23
2022-08-26T11:38:08.003Z,58.25
2022-08-26T11:39:07.970Z,58.15
2022-08-26T11:40:08.231Z,58.94
2022-08-26T11:41:08.340Z,58.34
2022-08-26T11:42:08.494Z,59.06
2022-08-26T11:43:08.657Z,59.33
2022-08-26T11:44:08.823Z,58.44
2022-08-26T11:45:08.979Z,58.02
2022-08-26T11:46:09.329Z,58.15
2022-08-26T11:47:11.576Z,58.64
2022-08-26T11:48:09.575Z,57.98
2022-08-26T11:49:09.651Z,55.90
2022-08-26T11:50:09.798Z,57.26
2022-08-26T11:51:09.961Z,59.88
2022-08-26T11:52:10.123Z,61.42
2022-08-26T11:53:10.300Z,63.03
2022-08-26T11:54:10.504Z,61.05
2022-08-26T11:55:10.682Z,62.87
2022-08-26T11:56:10.854Z,63.49
2022-08-26T11:57:11.923Z,64.51
2022-08-26T11:58:11.221Z,64.74
2022-08-26T11:59:11.396Z,65.33
2022-08-26T12:00:13.552Z,66.55
2022-08-26T12:01:11.750Z,67.14
2022-08-26T12:02:11.931Z,67.54
2022-08-26T12:03:12.387Z,68.53
2022-08-26T12:04:12.351Z,68.63
2022-08-26T12:05:12.432Z,69.65
2022-08-26T12:06:14.144Z,69.26
2022-08-26T12:07:12.803Z,69.36
2022-08-26T12:08:13.002Z,69.79
2022-08-26T12:09:13.171Z,70.68
2022-08-26T12:10:13.363Z,71.51
2022-08-26T12:11:13.553Z,70.02
2022-08-26T12:12:13.749Z,70.12
2022-08-26T12:13:13.937Z,70.62
2022-08-26T12:14:14.123Z,69.92
2022-08-26T12:15:14.322Z,70.58
2022-08-26T12:16:14.554Z,70.28
2022-08-26T12:17:14.684Z,69.85
2022-08-26T12:18:14.890Z,70.54
2022-08-26T12:19:15.115Z,68.76
2022-08-26T12:20:15.297Z,67.61
2022-08-26T12:21:15.490Z,68.04
2022-08-26T12:22:15.713Z,69.03
2022-08-26T12:23:15.909Z,69.03
2022-08-26T12:24:16.113Z,70.81
2022-08-26T12:25:16.223Z,71.57
2022-08-26T12:26:16.434Z,70.68
2022-08-26T12:27:16.678Z,69.49
2022-08-26T12:28:17.567Z,69.49
2022-08-26T12:29:26.551Z,69.59
2022-08-26T12:30:19.285Z,70.78
2022-08-26T12:31:17.540Z,70.09
2022-08-26T12:32:17.633Z,70.58
2022-08-26T12:33:22.935Z,69.98
2022-08-26T12:34:19.008Z,70.42
2022-08-26T12:35:18.215Z,71.91
2022-08-26T12:36:18.450Z,70.62
2022-08-26T12:37:18.869Z,71.31
2022-08-26T12:38:18.889Z,71.51
2022-08-26T12:39:19.125Z,70.32
2022-08-26T12:40:19.398Z,71.04
2022-08-26T12:41:19.542Z,71.74
2022-08-26T12:42:19.654Z,73.07
2022-08-26T12:43:19.838Z,72.37
2022-08-26T12:44:19.991Z,72.27
2022-08-26T12:45:20.274Z,73.00
2022-08-26T12:46:20.374Z,74.79
2022-08-26T12:47:23.377Z,77.17
2022-08-26T12:48:21.790Z,80.55
2022-08-26T12:49:21.003Z,81.45
2022-08-26T12:50:21.279Z,80.09
2022-08-26T12:51:21.461Z,82.22
2022-08-26T12:52:21.603Z,82.71
2022-08-26T12:53:21.724Z,82.46
2022-08-26T12:54:21.973Z,83.25
2022-08-26T12:55:22.184Z,83.29